Pagina principale
METAR-TAF:

METAR-TAF

Aeroporti :

Aeroporto di Bari-Palese

Bari, Italia

latitudine: 41-08N, longitudine: 016-47E, altezza: 34 m

Osservazione

Il bollettino è stato emesso 25 minuti fa, alle 15:50 UTC
Vento 7 kt da nord/nord-est, variando fra nord e est/nord-est
Temperature 28°C
Umidità 66%
Pressione 1014 hPa
Visibilità 10 km o più
nessuna nube inferiore a 1500 m e nessun cumulonembo

METAR: LIBD 181550Z 03007KT 350V060 CAVOK 28/21 Q1014

Ora: 18:15 (16:15 UTC)

Previsione

Il bollettino è stato emesso 5 ore e 15 minuti fa, alle 11:00 UTC
Previsione valida dal 18 alle 12 UTC al 19 alle 12 UTC
Vento 12 kt da nord/nord-est
Visibilità 10 km o più
Nubi sparse ad un'altezza di 3000 ft
Evoluzione graduale
dal 18 alle 18 UTC al 18 alle 20 UTC
Vento 8 kt da nord-ovest
Evoluzione graduale
dal 19 alle 09 UTC al 19 alle 11 UTC
Vento 12 kt da nord

TAF: LIBD 181100Z 1812/1912 02012KT 9999 SCT030 BECMG 1818/1820 32008KT BECMG 1909/1911 01012KT

Osservazioni e previsioni meteorologiche di più di 4000 aeroporti (messaggi METAR e TAF).

Le stazioni disponibili sono rappresentate dai dischi gialli e rossi sulla carta.

Puntare il mouse per vedere il nome della stazione.

Clicca sopra per visualizzare le osservazioni e previsioni meteorologiche.

Per cambiare la mappa : fare clic sui pulsanti verdi con una croce nera per ingrandire, il pulsante verde con un trattino per diminuire, o sulla freccia verde per le mappe adiacenti.


METAR-TAF: